Time;durP1;ratioP1;P1;durP2;ratioP2;P2;SDS_P1;SDS_P2;PMS_P1;PMS_P2;Temp;Humidity;BMP_temperature;BMP_pressure;BME280_temperature;BME280_humidity;BME280_pressure;Samples;Min_cycle;Max_cycle;Signal;HPM_P1;HPM_P2
2022/01/14 00:01:48;;;;;;;;;;;6.30;99.90;;;;;;5074404;28;20428;-75
2022/01/14 00:04:14;;;;;;;;;;;6.30;99.90;;;;;;5073692;28;19965;-75
2022/01/14 00:06:40;;;;;;;;;;;6.30;99.90;;;;;;5074643;28;20390;-76
2022/01/14 00:09:07;;;;;;;;;;;6.30;99.90;;;;;;5074066;28;19975;-75
2022/01/14 00:11:44;;;;;;;;;;;6.30;99.90;;;;;;5074493;28;19927;-75
2022/01/14 00:14:24;;;;;;;;;;;6.30;99.90;;;;;;5057599;28;19927;-75
2022/01/14 00:16:50;;;;;;;;;;;6.30;99.90;;;;;;5057865;28;19942;-76
2022/01/14 00:19:16;;;;;;;;;;;6.30;99.90;;;;;;5074610;28;19966;-75
2022/01/14 00:21:43;;;;;;;;;;;6.30;99.90;;;;;;5092239;28;19920;-76
2022/01/14 00:32:19;;;;;;;;;;;6.40;99.90;;;;;;5073599;28;19986;-76
2022/01/14 00:34:45;;;;;;;;;;;6.40;99.90;;;;;;5057460;28;19928;-75
2022/01/14 00:37:11;;;;;;;;;;;6.40;99.90;;;;;;5073535;28;19968;-76
2022/01/14 00:39:36;;;;;;;;;;;6.40;99.90;;;;;;5073877;28;20382;-75
2022/01/14 00:42:02;;;;;;;;;;;6.30;99.90;;;;;;5073706;28;19927;-75
2022/01/14 00:44:28;;;;;;;;;;;6.30;99.90;;;;;;5073876;28;19920;-76
2022/01/14 00:46:53;;;;;;;;;;;6.40;99.90;;;;;;5074329;28;20305;-75
2022/01/14 00:49:20;;;;;;;;;;;6.30;99.90;;;;;;5073784;28;19920;-76
2022/01/14 00:51:46;;;;;;;;;;;6.30;99.90;;;;;;5073881;28;19920;-75
2022/01/14 00:54:12;;;;;;;;;;;6.40;99.90;;;;;;5073750;28;19967;-76
2022/01/14 00:59:15;;;;;;;;;;;6.30;99.90;;;;;;5073410;28;19924;-76
2022/01/14 01:01:48;;;;;;;;;;;6.30;99.90;;;;;;5073746;28;19927;-75
2022/01/14 01:04:14;;;;;;;;;;;6.30;99.90;;;;;;5054581;28;19928;-75
2022/01/14 01:06:40;;;;;;;;;;;6.30;99.90;;;;;;5053392;28;19970;-75
2022/01/14 01:09:15;;;;;;;;;;;6.30;99.90;;;;;;5052973;28;19971;-75
2022/01/14 01:11:47;;;;;;;;;;;6.30;99.90;;;;;;5053217;28;19955;-77
2022/01/14 01:14:18;;;;;;;;;;;6.30;99.90;;;;;;5053349;28;20401;-77
2022/01/14 01:16:44;;;;;;;;;;;6.30;99.90;;;;;;5053288;28;19927;-75
2022/01/14 01:19:10;;;;;;;;;;;6.30;99.90;;;;;;5071388;28;19920;-75
2022/01/14 01:21:35;;;;;;;;;;;6.30;99.90;;;;;;5052920;28;19943;-75
2022/01/14 01:24:01;;;;;;;;;;;6.40;99.90;;;;;;5053228;28;19921;-76
2022/01/14 01:26:31;;;;;;;;;;;6.30;99.90;;;;;;5052972;28;20407;-76
2022/01/14 01:29:08;;;;;;;;;;;6.30;99.90;;;;;;5053153;28;19920;-76
2022/01/14 01:31:37;;;;;;;;;;;6.30;99.90;;;;;;5053040;28;19974;-76
2022/01/14 01:34:17;;;;;;;;;;;6.30;99.90;;;;;;5052650;28;19959;-76
2022/01/14 01:36:44;;;;;;;;;;;6.30;99.90;;;;;;5053170;28;19920;-75
2022/01/14 01:39:11;;;;;;;;;;;6.30;99.90;;;;;;5053015;28;19921;-75
2022/01/14 01:41:37;;;;;;;;;;;6.30;99.90;;;;;;5052866;28;19920;-75
2022/01/14 01:44:06;;;;;;;;;;;6.30;99.90;;;;;;5052928;28;19927;-75
2022/01/14 01:46:31;;;;;;;;;;;6.30;99.90;;;;;;5052906;28;20293;-75
2022/01/14 01:48:57;;;;;;;;;;;6.30;99.90;;;;;;5052189;28;19920;-75
2022/01/14 01:51:22;;;;;;;;;;;6.30;99.90;;;;;;5070315;28;20301;-75
2022/01/14 01:53:48;;;;;;;;;;;6.30;99.90;;;;;;5052744;28;19924;-76
2022/01/14 01:56:14;;;;;;;;;;;6.30;99.90;;;;;;5052802;28;19967;-76
2022/01/14 01:58:40;;;;;;;;;;;6.30;99.90;;;;;;5052260;28;19930;-76
2022/01/14 02:01:06;;;;;;;;;;;6.30;99.90;;;;;;5052110;28;19924;-76
2022/01/14 02:03:33;;;;;;;;;;;6.30;99.90;;;;;;5065575;28;19924;-72
2022/01/14 02:05:58;;;;;;;;;;;6.30;99.90;;;;;;5090504;28;19919;-74
2022/01/14 02:08:24;;;;;;;;;;;6.30;99.90;;;;;;5072393;28;20388;-75
2022/01/14 02:10:49;;;;;;;;;;;6.30;99.90;;;;;;5072072;28;20365;-75
2022/01/14 02:13:16;;;;;;;;;;;6.20;99.90;;;;;;5072035;28;19920;-75
2022/01/14 02:15:45;;;;;;;;;;;6.20;99.90;;;;;;5072210;28;19920;-75
2022/01/14 02:23:23;;;;;;;;;;;6.10;99.90;;;;;;5071830;28;20018;-75
2022/01/14 02:25:48;;;;;;;;;;;6.10;99.90;;;;;;5072372;28;19920;-75
2022/01/14 02:28:17;;;;;;;;;;;6.10;99.90;;;;;;5072239;28;19927;-75
2022/01/14 02:30:44;;;;;;;;;;;6.10;99.90;;;;;;5071959;28;19927;-75
2022/01/14 02:33:13;;;;;;;;;;;6.10;99.90;;;;;;5072269;28;19920;-75
2022/01/14 02:35:39;;;;;;;;;;;6.10;99.90;;;;;;5071975;28;20384;-76
2022/01/14 02:38:06;;;;;;;;;;;6.10;99.90;;;;;;5071783;28;19973;-75
2022/01/14 02:40:31;;;;;;;;;;;6.10;99.90;;;;;;5071685;28;19973;-76
2022/01/14 02:43:00;;;;;;;;;;;6.10;99.90;;;;;;5073959;28;19924;-75
2022/01/14 02:45:31;;;;;;;;;;;6.10;99.90;;;;;;5052425;28;20298;-76
2022/01/14 02:47:56;;;;;;;;;;;6.10;99.90;;;;;;5062714;28;19928;-76
2022/01/14 02:50:24;;;;;;;;;;;6.10;99.90;;;;;;5050462;28;19924;-76
2022/01/14 02:55:21;;;;;;;;;;;6.10;99.90;;;;;;5070985;28;19980;-76
2022/01/14 02:57:53;;;;;;;;;;;6.10;99.90;;;;;;5070793;28;19931;-76
2022/01/14 03:00:21;;;;;;;;;;;6.10;99.90;;;;;;5066437;28;20382;-76
2022/01/14 03:02:47;;;;;;;;;;;6.10;99.90;;;;;;5050914;28;20302;-76
2022/01/14 03:05:14;;;;;;;;;;;6.20;99.90;;;;;;5050394;28;19920;-76
2022/01/14 03:07:40;;;;;;;;;;;6.20;99.90;;;;;;5034055;28;20805;-76
2022/01/14 03:10:07;;;;;;;;;;;6.20;99.90;;;;;;5050444;28;20731;-76
2022/01/14 03:12:32;;;;;;;;;;;6.20;99.90;;;;;;5051021;28;19943;-76
2022/01/14 03:14:58;;;;;;;;;;;6.20;99.90;;;;;;5050599;28;19924;-76
2022/01/14 03:17:24;;;;;;;;;;;6.20;99.90;;;;;;5055329;28;19920;-76
2022/01/14 03:19:49;;;;;;;;;;;6.30;99.90;;;;;;5054604;28;19920;-76
2022/01/14 03:22:21;;;;;;;;;;;6.30;99.90;;;;;;5058340;28;19920;-77
2022/01/14 03:27:12;;;;;;;;;;;6.30;99.90;;;;;;5075594;28;19966;-76
2022/01/14 03:29:38;;;;;;;;;;;6.30;99.90;;;;;;5074848;28;20018;-76
2022/01/14 03:32:04;;;;;;;;;;;6.30;99.90;;;;;;5093514;28;20039;-76
2022/01/14 03:34:29;;;;;;;;;;;6.30;99.90;;;;;;5058522;28;19939;-76
2022/01/14 03:36:55;;;;;;;;;;;6.30;99.90;;;;;;5074824;28;19970;-76
2022/01/14 03:39:21;;;;;;;;;;;6.40;99.90;;;;;;5075146;28;20010;-76
2022/01/14 03:41:47;;;;;;;;;;;6.40;99.90;;;;;;5074828;28;19927;-76
2022/01/14 03:44:12;;;;;;;;;;;6.40;99.90;;;;;;5058686;28;19920;-76
2022/01/14 03:46:38;;;;;;;;;;;6.40;99.90;;;;;;5074886;28;20389;-76
2022/01/14 03:49:03;;;;;;;;;;;6.40;99.90;;;;;;5074737;28;19927;-76
2022/01/14 03:51:29;;;;;;;;;;;6.40;99.90;;;;;;5070446;28;19921;-76
2022/01/14 03:53:55;;;;;;;;;;;6.40;99.90;;;;;;5054860;28;19927;-76
2022/01/14 03:56:22;;;;;;;;;;;6.40;99.90;;;;;;5038321;28;19924;-76
2022/01/14 03:58:48;;;;;;;;;;;6.40;99.90;;;;;;5054577;28;19920;-76
2022/01/14 04:01:14;;;;;;;;;;;6.40;99.90;;;;;;5054618;28;19928;-76
2022/01/14 04:03:40;;;;;;;;;;;6.40;99.90;;;;;;5054345;28;20342;-75
2022/01/14 04:06:06;;;;;;;;;;;6.40;99.90;;;;;;5054111;28;19924;-76
2022/01/14 04:08:32;;;;;;;;;;;6.40;99.90;;;;;;5036389;28;20459;-76
2022/01/14 04:11:00;;;;;;;;;;;6.40;99.90;;;;;;5053406;28;20022;-76
2022/01/14 04:13:44;;;;;;;;;;;6.40;99.90;;;;;;5054486;28;19920;-76
2022/01/14 04:16:10;;;;;;;;;;;6.30;99.90;;;;;;5055020;28;20286;-75
2022/01/14 04:18:36;;;;;;;;;;;6.30;99.90;;;;;;5054628;28;20010;-76
2022/01/14 04:21:01;;;;;;;;;;;6.20;99.90;;;;;;5054081;28;19927;-76
2022/01/14 04:23:27;;;;;;;;;;;6.20;99.90;;;;;;5054217;28;19977;-76
2022/01/14 04:25:53;;;;;;;;;;;6.10;99.90;;;;;;5054610;28;19978;-76
2022/01/14 04:28:20;;;;;;;;;;;6.10;99.90;;;;;;5054046;28;20570;-75
2022/01/14 04:30:46;;;;;;;;;;;6.10;99.90;;;;;;5037007;28;19924;-76
2022/01/14 04:33:12;;;;;;;;;;;6.00;99.90;;;;;;5053903;28;20376;-76
2022/01/14 04:35:38;;;;;;;;;;;6.10;99.90;;;;;;5054070;28;19925;-76
2022/01/14 04:38:03;;;;;;;;;;;6.10;99.90;;;;;;5053717;28;20394;-76
2022/01/14 04:40:29;;;;;;;;;;;6.00;99.90;;;;;;5053827;28;19955;-75
2022/01/14 04:42:57;;;;;;;;;;;6.10;99.90;;;;;;5054140;28;19926;-76
2022/01/14 04:48:00;;;;;;;;;;;6.00;99.90;;;;;;5053663;28;19999;-75
2022/01/14 04:50:26;;;;;;;;;;;6.00;99.90;;;;;;5053821;28;20003;-75
2022/01/14 04:52:52;;;;;;;;;;;6.00;99.90;;;;;;5069582;28;19927;-76
2022/01/14 04:55:19;;;;;;;;;;;6.00;99.90;;;;;;5073790;28;19920;-75
2022/01/14 04:57:45;;;;;;;;;;;6.00;99.90;;;;;;5073734;28;19924;-76
2022/01/14 05:00:12;;;;;;;;;;;6.00;99.90;;;;;;5091097;28;20351;-76
2022/01/14 05:02:38;;;;;;;;;;;6.00;99.90;;;;;;5073668;28;19924;-76
2022/01/14 05:05:07;;;;;;;;;;;6.00;99.90;;;;;;5073297;28;20426;-76
2022/01/14 05:07:33;;;;;;;;;;;6.10;99.90;;;;;;5073525;28;19919;-75
2022/01/14 05:12:28;;;;;;;;;;;6.00;99.90;;;;;;5073385;28;19920;-76
2022/01/14 05:14:54;;;;;;;;;;;6.10;99.90;;;;;;5073545;28;19920;-76
2022/01/14 05:17:19;;;;;;;;;;;6.10;99.90;;;;;;5073182;28;20585;-76
2022/01/14 05:19:45;;;;;;;;;;;6.10;99.90;;;;;;5056273;28;19920;-76
2022/01/14 05:22:10;;;;;;;;;;;6.10;99.90;;;;;;5072235;28;19923;-76
2022/01/14 05:24:36;;;;;;;;;;;6.10;99.90;;;;;;5072169;28;19924;-76
2022/01/14 05:27:01;;;;;;;;;;;6.20;99.90;;;;;;5072040;28;19989;-76
2022/01/14 05:29:27;;;;;;;;;;;6.20;99.90;;;;;;5071870;28;19924;-76
2022/01/14 05:32:01;;;;;;;;;;;6.20;99.90;;;;;;5072279;28;19930;-76
2022/01/14 05:34:26;;;;;;;;;;;6.20;99.90;;;;;;5071926;28;19920;-76
2022/01/14 05:36:52;;;;;;;;;;;6.20;99.90;;;;;;5055248;28;20006;-76
2022/01/14 05:39:20;;;;;;;;;;;6.20;99.90;;;;;;5090005;28;19920;-76
2022/01/14 05:41:49;;;;;;;;;;;6.30;99.90;;;;;;5071539;28;19924;-76
2022/01/14 05:44:14;;;;;;;;;;;6.30;99.90;;;;;;5071628;28;20332;-76
2022/01/14 05:46:40;;;;;;;;;;;6.30;99.90;;;;;;5071414;28;19928;-76
2022/01/14 05:49:05;;;;;;;;;;;6.30;99.90;;;;;;5071395;28;19989;-76
2022/01/14 05:51:32;;;;;;;;;;;6.30;99.90;;;;;;5066721;28;19924;-76
2022/01/14 05:53:57;;;;;;;;;;;6.30;99.90;;;;;;5051909;28;20553;-76
2022/01/14 05:56:23;;;;;;;;;;;6.30;99.90;;;;;;5051744;28;19955;-76
2022/01/14 05:58:48;;;;;;;;;;;6.30;99.90;;;;;;5051721;28;19924;-76
2022/01/14 06:01:14;;;;;;;;;;;6.40;99.90;;;;;;5051603;28;19939;-76
2022/01/14 06:03:39;;;;;;;;;;;6.30;99.90;;;;;;5051435;28;20098;-76
2022/01/14 06:06:05;;;;;;;;;;;6.40;99.90;;;;;;5052212;28;19931;-77
2022/01/14 06:08:30;;;;;;;;;;;6.40;99.90;;;;;;5052259;28;19920;-76
2022/01/14 06:10:56;;;;;;;;;;;6.40;99.90;;;;;;5069510;28;20011;-76
2022/01/14 06:13:21;;;;;;;;;;;6.40;99.90;;;;;;5052181;28;19966;-76
2022/01/14 06:15:47;;;;;;;;;;;6.30;99.90;;;;;;5052260;28;19943;-76
2022/01/14 06:18:12;;;;;;;;;;;6.40;99.90;;;;;;5052534;28;19927;-77
2022/01/14 06:20:38;;;;;;;;;;;6.30;99.90;;;;;;5052318;28;19931;-76
2022/01/14 06:23:03;;;;;;;;;;;6.30;99.90;;;;;;5051572;28;19967;-76
2022/01/14 06:25:29;;;;;;;;;;;6.40;99.90;;;;;;5052096;28;19920;-76
2022/01/14 06:27:54;;;;;;;;;;;6.40;99.90;;;;;;5052035;28;20015;-76
2022/01/14 06:30:20;;;;;;;;;;;6.40;99.90;;;;;;5052010;28;20073;-76
2022/01/14 06:32:45;;;;;;;;;;;6.40;99.90;;;;;;5051993;28;19960;-76
2022/01/14 06:35:15;;;;;;;;;;;6.40;99.90;;;;;;5052161;28;19924;-76
2022/01/14 06:37:41;;;;;;;;;;;6.40;99.90;;;;;;5069635;28;19924;-76
2022/01/14 06:40:07;;;;;;;;;;;6.40;99.90;;;;;;5052041;28;20069;-76
2022/01/14 06:42:33;;;;;;;;;;;6.40;99.90;;;;;;5052171;28;19965;-76
2022/01/14 06:44:58;;;;;;;;;;;6.40;99.90;;;;;;5051710;28;20377;-76
2022/01/14 06:47:24;;;;;;;;;;;6.40;99.90;;;;;;5051530;28;19920;-75
2022/01/14 06:49:49;;;;;;;;;;;6.40;99.90;;;;;;5052024;28;19925;-74
2022/01/14 06:52:15;;;;;;;;;;;6.40;99.90;;;;;;5061349;28;19927;-75
2022/01/14 06:54:41;;;;;;;;;;;6.40;99.90;;;;;;5071244;28;19920;-75
2022/01/14 06:57:07;;;;;;;;;;;6.40;99.90;;;;;;5058797;28;19927;-74
2022/01/14 06:59:32;;;;;;;;;;;6.40;99.90;;;;;;5073761;28;19927;-75
2022/01/14 07:01:59;;;;;;;;;;;6.40;99.90;;;;;;5075763;28;19923;-76
2022/01/14 07:04:24;;;;;;;;;;;6.40;99.90;;;;;;5075733;28;19920;-76
2022/01/14 07:06:50;;;;;;;;;;;6.40;99.90;;;;;;5075426;28;20338;-76
2022/01/14 07:09:15;;;;;;;;;;;6.40;99.90;;;;;;5075705;28;19927;-76
2022/01/14 07:11:41;;;;;;;;;;;6.40;99.90;;;;;;5058396;28;19920;-75
2022/01/14 07:14:06;;;;;;;;;;;6.40;99.90;;;;;;5075441;28;19965;-76
2022/01/14 07:16:33;;;;;;;;;;;6.40;99.90;;;;;;5075852;28;19920;-76
2022/01/14 07:19:00;;;;;;;;;;;6.40;99.90;;;;;;5059060;28;20267;-76
2022/01/14 07:21:25;;;;;;;;;;;6.40;99.90;;;;;;5058497;28;19955;-76
2022/01/14 07:23:51;;;;;;;;;;;6.40;99.90;;;;;;5075204;28;19967;-76
2022/01/14 07:26:17;;;;;;;;;;;6.40;99.90;;;;;;5075855;28;19919;-76
2022/01/14 07:28:42;;;;;;;;;;;6.40;99.90;;;;;;5075448;28;19924;-76
2022/01/14 07:31:08;;;;;;;;;;;6.40;99.90;;;;;;5075173;28;20006;-76
2022/01/14 07:33:33;;;;;;;;;;;6.40;99.90;;;;;;5075383;28;19968;-76
2022/01/14 07:35:59;;;;;;;;;;;6.40;99.90;;;;;;5058245;28;19967;-76
2022/01/14 07:38:24;;;;;;;;;;;6.40;99.90;;;;;;5058604;28;19926;-76
2022/01/14 07:40:50;;;;;;;;;;;6.40;99.90;;;;;;5075176;28;20002;-76
2022/01/14 07:43:16;;;;;;;;;;;6.40;99.90;;;;;;5075038;28;20370;-76
2022/01/14 07:45:41;;;;;;;;;;;6.40;99.90;;;;;;5075186;28;19973;-76
2022/01/14 07:48:07;;;;;;;;;;;6.40;99.90;;;;;;5075057;28;19924;-76
2022/01/14 07:50:32;;;;;;;;;;;6.40;99.90;;;;;;5057629;28;20370;-76
2022/01/14 07:52:58;;;;;;;;;;;6.40;99.90;;;;;;5041666;28;19920;-76
2022/01/14 07:55:23;;;;;;;;;;;6.40;99.90;;;;;;5054654;28;19920;-76
2022/01/14 07:57:49;;;;;;;;;;;6.40;99.90;;;;;;5054780;28;19920;-76
2022/01/14 08:00:16;;;;;;;;;;;6.40;99.90;;;;;;5054864;28;19920;-76
2022/01/14 08:02:41;;;;;;;;;;;6.40;99.90;;;;;;5054642;28;19920;-76
2022/01/14 08:05:07;;;;;;;;;;;6.40;99.90;;;;;;5054411;28;19927;-76
2022/01/14 08:07:34;;;;;;;;;;;6.50;99.90;;;;;;5054252;28;19926;-76
2022/01/14 08:10:00;;;;;;;;;;;6.50;99.90;;;;;;5054328;28;19930;-76
2022/01/14 08:12:26;;;;;;;;;;;6.50;99.90;;;;;;5054384;28;20286;-76
2022/01/14 08:14:51;;;;;;;;;;;6.50;99.90;;;;;;5037416;28;19920;-76
2022/01/14 08:17:19;;;;;;;;;;;6.50;99.90;;;;;;5054469;28;19920;-76
2022/01/14 08:19:45;;;;;;;;;;;6.60;99.90;;;;;;5038095;28;19927;-76
2022/01/14 08:22:11;;;;;;;;;;;6.60;99.90;;;;;;5054472;28;19925;-76
2022/01/14 08:24:37;;;;;;;;;;;6.60;99.90;;;;;;5054231;28;20009;-76
2022/01/14 08:27:02;;;;;;;;;;;6.60;99.90;;;;;;5054618;28;19981;-76
2022/01/14 08:29:28;;;;;;;;;;;6.60;99.90;;;;;;5038110;28;19924;-76
2022/01/14 08:31:55;;;;;;;;;;;6.60;99.90;;;;;;5054008;28;19920;-76
2022/01/14 08:34:21;;;;;;;;;;;6.70;99.90;;;;;;5054149;28;19920;-76
2022/01/14 08:36:47;;;;;;;;;;;6.70;99.90;;;;;;5037682;28;20282;-76
2022/01/14 08:39:13;;;;;;;;;;;6.70;99.90;;;;;;5053910;28;19970;-76
2022/01/14 08:41:38;;;;;;;;;;;6.70;99.90;;;;;;5054116;28;19928;-76
2022/01/14 08:44:04;;;;;;;;;;;6.70;99.90;;;;;;5054051;28;19964;-76
2022/01/14 08:46:30;;;;;;;;;;;6.70;99.90;;;;;;5053667;28;19921;-76
2022/01/14 08:48:59;;;;;;;;;;;6.70;99.90;;;;;;5054125;28;19925;-76
2022/01/14 08:51:27;;;;;;;;;;;6.70;99.90;;;;;;5053033;28;20358;-76
2022/01/14 08:53:53;;;;;;;;;;;6.70;99.90;;;;;;5052626;28;19928;-76
2022/01/14 08:56:18;;;;;;;;;;;6.70;99.90;;;;;;5052659;28;19925;-76
2022/01/14 08:58:44;;;;;;;;;;;6.70;99.90;;;;;;5036283;28;19927;-76
2022/01/14 09:01:10;;;;;;;;;;;6.70;99.90;;;;;;5052654;28;20407;-77
2022/01/14 09:03:35;;;;;;;;;;;6.80;99.90;;;;;;5069291;28;19920;-76
2022/01/14 09:06:01;;;;;;;;;;;6.80;99.90;;;;;;5052716;28;19921;-76
2022/01/14 09:08:26;;;;;;;;;;;6.80;99.90;;;;;;5052127;28;19924;-76
2022/01/14 09:10:52;;;;;;;;;;;6.80;99.90;;;;;;5035663;28;20421;-76
2022/01/14 09:13:17;;;;;;;;;;;6.80;99.90;;;;;;5052582;28;19927;-76
2022/01/14 09:15:43;;;;;;;;;;;6.80;99.90;;;;;;5035585;28;20378;-76
2022/01/14 09:18:09;;;;;;;;;;;6.80;99.90;;;;;;5034987;28;20287;-76
2022/01/14 09:20:34;;;;;;;;;;;6.90;99.90;;;;;;5052454;28;19975;-76
2022/01/14 09:23:00;;;;;;;;;;;6.90;99.90;;;;;;5052043;28;20340;-76
2022/01/14 09:25:25;;;;;;;;;;;6.90;99.90;;;;;;5052277;28;20413;-76
2022/01/14 09:27:52;;;;;;;;;;;7.00;99.90;;;;;;5051971;28;20050;-76
2022/01/14 09:30:19;;;;;;;;;;;7.00;99.90;;;;;;5069956;28;19920;-76
2022/01/14 09:32:44;;;;;;;;;;;7.00;99.90;;;;;;5051973;28;20390;-76
2022/01/14 09:35:13;;;;;;;;;;;7.10;99.90;;;;;;5051968;28;20067;-76
2022/01/14 09:37:40;;;;;;;;;;;7.10;99.90;;;;;;5052263;28;20400;-76
2022/01/14 09:40:06;;;;;;;;;;;7.10;99.90;;;;;;5052032;28;20024;-76
2022/01/14 09:42:31;;;;;;;;;;;7.10;99.90;;;;;;5051581;28;19928;-76
2022/01/14 09:44:58;;;;;;;;;;;7.20;99.90;;;;;;5051428;28;19920;-76
2022/01/14 09:47:23;;;;;;;;;;;7.20;99.90;;;;;;5034933;28;19924;-76
2022/01/14 09:49:49;;;;;;;;;;;7.20;99.90;;;;;;5051547;28;20290;-76
2022/01/14 09:52:15;;;;;;;;;;;7.20;99.90;;;;;;5062006;28;20389;-77
2022/01/14 09:54:41;;;;;;;;;;;7.20;99.90;;;;;;5055092;28;19920;-76
2022/01/14 09:57:08;;;;;;;;;;;7.30;99.90;;;;;;5071977;28;19969;-76
2022/01/14 09:59:34;;;;;;;;;;;7.30;99.90;;;;;;5070681;28;20021;-76
2022/01/14 10:02:00;;;;;;;;;;;7.30;99.90;;;;;;5072147;28;19963;-76
2022/01/14 10:04:25;;;;;;;;;;;7.30;99.90;;;;;;5054849;28;20356;-77
2022/01/14 10:06:52;;;;;;;;;;;7.30;99.90;;;;;;5054810;28;19986;-76
2022/01/14 10:09:20;;;;;;;;;;;7.30;99.90;;;;;;5071497;28;19920;-76
2022/01/14 10:12:00;;;;;;;;;;;7.30;99.90;;;;;;5071340;28;20340;-76
2022/01/14 10:14:25;;;;;;;;;;;7.30;99.90;;;;;;5071011;28;20066;-76
2022/01/14 10:16:58;;;;;;;;;;;7.40;99.90;;;;;;5071610;28;20002;-76
2022/01/14 10:19:24;;;;;;;;;;;7.40;99.90;;;;;;5088988;28;19920;-76
2022/01/14 10:21:50;;;;;;;;;;;7.40;99.90;;;;;;5071074;28;19947;-76
2022/01/14 10:24:15;;;;;;;;;;;7.50;99.90;;;;;;5071414;28;19920;-76
2022/01/14 10:26:48;;;;;;;;;;;7.50;99.90;;;;;;5071158;28;19930;-76
2022/01/14 10:29:14;;;;;;;;;;;7.50;99.90;;;;;;5070355;28;20449;-76
2022/01/14 10:31:42;;;;;;;;;;;7.50;99.90;;;;;;5071223;28;20002;-76
2022/01/14 10:34:09;;;;;;;;;;;7.60;99.90;;;;;;5070778;28;19920;-76
2022/01/14 10:36:34;;;;;;;;;;;7.50;99.90;;;;;;5071104;28;19920;-76
2022/01/14 10:39:16;;;;;;;;;;;7.50;99.90;;;;;;5071415;28;19930;-76
2022/01/14 10:41:42;;;;;;;;;;;7.50;99.90;;;;;;5054253;28;19923;-76
2022/01/14 10:44:28;;;;;;;;;;;7.60;99.90;;;;;;5070433;28;19926;-76
2022/01/14 10:47:10;;;;;;;;;;;7.60;99.90;;;;;;5071482;28;20317;-76
2022/01/14 10:49:37;;;;;;;;;;;7.60;99.90;;;;;;5071839;28;19920;-76
2022/01/14 10:52:10;;;;;;;;;;;7.60;99.90;;;;;;5046187;28;19928;-76
2022/01/14 10:54:39;;;;;;;;;;;7.60;99.90;;;;;;5085298;28;19927;-76
2022/01/14 10:57:15;;;;;;;;;;;7.60;99.90;;;;;;5051858;28;19975;-76
2022/01/14 10:59:40;;;;;;;;;;;7.60;99.90;;;;;;5085175;28;20477;-77
2022/01/14 11:02:25;;;;;;;;;;;7.60;99.90;;;;;;5051697;28;20024;-76
2022/01/14 11:05:20;;;;;;;;;;;7.60;99.90;;;;;;5069260;28;19963;-76
2022/01/14 11:07:47;;;;;;;;;;;7.70;99.90;;;;;;5043148;28;19924;-77
2022/01/14 11:10:15;;;;;;;;;;;7.70;99.90;;;;;;5084894;28;19928;-76
2022/01/14 11:12:41;;;;;;;;;;;7.70;99.90;;;;;;5051090;28;19929;-76
2022/01/14 11:15:08;;;;;;;;;;;7.70;99.90;;;;;;5051630;28;19928;-76
2022/01/14 11:17:37;;;;;;;;;;;7.70;99.90;;;;;;5085479;28;19951;-76
2022/01/14 11:20:04;;;;;;;;;;;7.70;99.90;;;;;;5051531;28;19967;-76
2022/01/14 11:25:14;;;;;;;;;;;7.80;99.90;;;;;;5051558;28;19931;-76
2022/01/14 11:27:40;;;;;;;;;;;7.80;99.90;;;;;;5034537;28;19951;-76
2022/01/14 11:30:12;;;;;;;;;;;7.80;99.90;;;;;;5051487;28;19931;-76
2022/01/14 11:32:50;;;;;;;;;;;7.80;99.90;;;;;;5051385;28;19924;-76
2022/01/14 11:35:23;;;;;;;;;;;7.80;99.90;;;;;;5084547;28;19924;-76
2022/01/14 11:37:49;;;;;;;;;;;7.80;99.90;;;;;;5084941;28;20426;-76
2022/01/14 11:40:15;;;;;;;;;;;7.80;99.90;;;;;;5051686;28;20007;-77
2022/01/14 11:42:44;;;;;;;;;;;7.80;99.90;;;;;;5038146;28;19924;-76
2022/01/14 11:45:11;;;;;;;;;;;7.80;99.90;;;;;;5073033;28;19928;-76
2022/01/14 11:47:39;;;;;;;;;;;7.80;99.90;;;;;;5088898;28;19928;-76
2022/01/14 11:50:07;;;;;;;;;;;7.90;99.90;;;;;;5054356;28;19927;-77
2022/01/14 11:52:33;;;;;;;;;;;7.90;99.90;;;;;;5091911;28;19920;-76
2022/01/14 11:54:59;;;;;;;;;;;7.80;99.90;;;;;;5074874;28;20374;-76
2022/01/14 11:57:45;;;;;;;;;;;7.80;99.90;;;;;;5057562;28;19926;-77
2022/01/14 12:00:41;;;;;;;;;;;7.80;99.90;;;;;;5074685;28;20430;-76
2022/01/14 12:03:06;;;;;;;;;;;7.80;99.90;;;;;;5074585;28;19923;-76
2022/01/14 12:05:33;;;;;;;;;;;7.80;99.90;;;;;;5075011;28;19927;-77
2022/01/14 12:08:11;;;;;;;;;;;7.80;99.90;;;;;;5074842;28;19920;-77
2022/01/14 12:10:40;;;;;;;;;;;7.80;99.90;;;;;;5074481;28;19924;-76
2022/01/14 12:13:27;;;;;;;;;;;7.80;99.90;;;;;;5074075;28;19920;-76
2022/01/14 12:16:11;;;;;;;;;;;7.80;99.90;;;;;;5074562;28;20036;-77
2022/01/14 12:18:49;;;;;;;;;;;7.80;99.90;;;;;;5074403;28;19973;-76
2022/01/14 12:21:15;;;;;;;;;;;7.90;99.90;;;;;;5074162;28;20409;-77
2022/01/14 12:23:41;;;;;;;;;;;7.80;99.90;;;;;;5074542;28;19924;-76
2022/01/14 12:26:14;;;;;;;;;;;7.80;99.90;;;;;;5073961;28;20011;-76
2022/01/14 12:28:40;;;;;;;;;;;7.80;99.90;;;;;;5057649;28;19920;-76
2022/01/14 12:31:05;;;;;;;;;;;7.80;99.90;;;;;;5073904;28;19923;-76
2022/01/14 12:33:42;;;;;;;;;;;7.80;99.90;;;;;;5074126;28;19971;-76
2022/01/14 12:36:11;;;;;;;;;;;7.80;99.90;;;;;;5074094;28;20417;-76
2022/01/14 12:38:38;;;;;;;;;;;7.80;99.90;;;;;;5074157;28;19943;-76
2022/01/14 12:41:04;;;;;;;;;;;7.90;99.90;;;;;;5073795;28;19920;-76
2022/01/14 12:43:30;;;;;;;;;;;7.90;99.90;;;;;;5073692;28;19920;-77
2022/01/14 12:46:11;;;;;;;;;;;7.80;99.90;;;;;;5074279;28;20285;-76
2022/01/14 12:51:09;;;;;;;;;;;7.80;99.90;;;;;;5072550;28;19920;-77
2022/01/14 12:53:35;;;;;;;;;;;7.90;99.90;;;;;;5086092;28;19920;-76
2022/01/14 12:56:01;;;;;;;;;;;7.90;99.90;;;;;;5087407;28;19969;-77
2022/01/14 12:58:27;;;;;;;;;;;7.90;99.90;;;;;;5053144;28;19931;-77
2022/01/14 13:01:05;;;;;;;;;;;8.00;99.90;;;;;;5053870;28;20019;-76
2022/01/14 13:03:31;;;;;;;;;;;8.00;99.90;;;;;;5053549;28;19921;-77
2022/01/14 13:06:00;;;;;;;;;;;8.00;99.90;;;;;;5053676;28;20074;-77
2022/01/14 13:08:29;;;;;;;;;;;8.00;99.90;;;;;;5053241;28;19921;-77
2022/01/14 13:11:04;;;;;;;;;;;8.00;99.90;;;;;;5086940;28;19920;-77
2022/01/14 13:13:30;;;;;;;;;;;8.00;99.90;;;;;;5036301;28;19928;-77
2022/01/14 13:16:05;;;;;;;;;;;8.10;99.90;;;;;;5053486;28;19924;-77
2022/01/14 13:18:37;;;;;;;;;;;8.00;99.90;;;;;;5053013;28;19924;-77
2022/01/14 13:21:03;;;;;;;;;;;8.00;99.90;;;;;;5053368;28;20327;-77
2022/01/14 13:23:28;;;;;;;;;;;8.00;99.90;;;;;;5086782;28;20326;-77
2022/01/14 13:25:54;;;;;;;;;;;8.00;99.90;;;;;;5053114;28;19924;-77
2022/01/14 13:28:20;;;;;;;;;;;8.00;99.90;;;;;;5086878;28;20069;-77
2022/01/14 13:30:45;;;;;;;;;;;8.00;99.90;;;;;;5052513;28;19981;-77
2022/01/14 13:33:15;;;;;;;;;;;8.00;99.90;;;;;;5052738;28;20263;-77
2022/01/14 13:35:42;;;;;;;;;;;7.90;99.90;;;;;;5053255;28;19924;-77
2022/01/14 13:38:11;;;;;;;;;;;8.00;99.90;;;;;;5036003;28;19928;-77
2022/01/14 13:40:44;;;;;;;;;;;8.00;99.90;;;;;;5051992;28;19921;-77
2022/01/14 13:43:17;;;;;;;;;;;7.90;99.90;;;;;;5052554;28;19978;-77
2022/01/14 13:45:46;;;;;;;;;;;7.90;99.90;;;;;;5052367;28;19959;-77
2022/01/14 13:48:25;;;;;;;;;;;7.90;99.90;;;;;;5086373;28;19924;-77
2022/01/14 13:51:07;;;;;;;;;;;7.90;99.90;;;;;;5070408;28;19921;-77
2022/01/14 13:53:44;;;;;;;;;;;7.90;99.90;;;;;;5052570;28;20305;-77
2022/01/14 13:56:11;;;;;;;;;;;7.90;99.90;;;;;;5035975;28;19928;-77
2022/01/14 13:58:38;;;;;;;;;;;7.90;99.90;;;;;;5052112;28;20029;-77
2022/01/14 14:01:05;;;;;;;;;;;7.90;99.90;;;;;;5070544;28;20011;-78
2022/01/14 14:06:15;;;;;;;;;;;7.90;99.90;;;;;;5052622;28;19971;-77
2022/01/14 14:16:56;;;;;;;;;;;7.90;99.90;;;;;;5052199;28;19920;-77
2022/01/14 14:19:23;;;;;;;;;;;7.80;99.90;;;;;;5035531;28;19935;-77
2022/01/14 14:22:04;;;;;;;;;;;7.90;99.90;;;;;;5052184;28;19927;-77
2022/01/14 14:24:29;;;;;;;;;;;7.80;99.90;;;;;;5052267;28;19928;-77
2022/01/14 14:27:07;;;;;;;;;;;7.80;99.90;;;;;;5051846;28;19921;-77
2022/01/14 14:29:33;;;;;;;;;;;7.80;99.90;;;;;;5052227;28;19920;-77
2022/01/14 14:32:13;;;;;;;;;;;7.80;99.90;;;;;;5035640;28;19970;-78
2022/01/14 14:34:39;;;;;;;;;;;7.80;99.90;;;;;;5051929;28;19931;-77
2022/01/14 14:37:04;;;;;;;;;;;7.80;99.90;;;;;;5051606;28;19921;-77
2022/01/14 14:39:30;;;;;;;;;;;7.80;99.90;;;;;;5051786;28;20318;-78
2022/01/14 14:41:55;;;;;;;;;;;7.80;99.90;;;;;;5070016;28;19924;-77
2022/01/14 14:44:21;;;;;;;;;;;7.80;99.90;;;;;;5051663;28;19948;-77
2022/01/14 14:46:46;;;;;;;;;;;7.80;99.90;;;;;;5051811;28;19970;-77
2022/01/14 14:49:12;;;;;;;;;;;7.80;99.90;;;;;;5051536;28;20374;-77
2022/01/14 14:51:39;;;;;;;;;;;7.80;99.90;;;;;;5057173;28;19924;-77
2022/01/14 14:54:04;;;;;;;;;;;7.80;99.90;;;;;;5071217;28;19960;-77
2022/01/14 14:56:30;;;;;;;;;;;7.80;99.90;;;;;;5071177;28;19981;-77
2022/01/14 14:58:55;;;;;;;;;;;7.80;99.90;;;;;;5070915;28;19926;-77
2022/01/14 15:01:21;;;;;;;;;;;7.80;99.90;;;;;;5070800;28;19920;-77
2022/01/14 15:03:46;;;;;;;;;;;7.80;99.90;;;;;;5070703;28;19941;-77
2022/01/14 15:06:12;;;;;;;;;;;7.80;99.90;;;;;;5070644;28;20014;-77
2022/01/14 15:08:38;;;;;;;;;;;7.80;99.90;;;;;;5070886;28;19924;-77
2022/01/14 15:11:03;;;;;;;;;;;7.80;99.90;;;;;;5070473;28;19931;-78
2022/01/14 15:13:29;;;;;;;;;;;7.80;99.90;;;;;;5070358;28;20369;-77
2022/01/14 15:18:22;;;;;;;;;;;7.80;99.90;;;;;;5075564;28;20422;-77